Terminal Aerodrome Forecast
Issued by NWS Wakefield, VA

Home | Current Version | Previous Version | Text Only | Print | Product List | Glossary On
Versions: 1 2 3 4 5 6 7 8 9 10 11 12 13 14 15 16 17 18 19 20 21 22
000
FTUS41 KAKQ 020500 CCA
TAFORF
TAF COR
KORF 020559Z 0206/0306 24008KT P6SM OVC007
     FM021300 23007KT P6SM SCT008 OVC015
     FM021500 33010KT P6SM SCT015 OVC030
     FM021800 01012G20KT P6SM BKN050
     FM022000 02007KT P6SM SCT250=

USA.gov is the U.S. government's official web portal to all federal, state and local government web resources and services.